createdAt,value
2018-12-17T00:00:18.592Z,-8.38
2018-12-17T00:02:49.256Z,-8.62
2018-12-17T00:05:17.500Z,-8.59
2018-12-17T00:07:45.105Z,-8.79
2018-12-17T00:10:12.812Z,-8.69
2018-12-17T00:12:41.493Z,-8.71
2018-12-17T00:15:09.133Z,-8.64
2018-12-17T00:17:36.790Z,-8.51
2018-12-17T00:20:07.974Z,-8.36
2018-12-17T00:22:35.573Z,-8.47
2018-12-17T00:25:04.483Z,-8.40
2018-12-17T00:27:32.084Z,-8.37
2018-12-17T00:30:00.852Z,-8.39
2018-12-17T00:32:28.463Z,-8.47
2018-12-17T00:34:56.076Z,-8.56
2018-12-17T00:37:23.740Z,-8.84
2018-12-17T00:39:51.355Z,-9.17
2018-12-17T00:42:19.013Z,-9.00
2018-12-17T00:44:46.596Z,-8.91
2018-12-17T00:47:14.247Z,-8.93
2018-12-17T00:49:41.828Z,-8.86
2018-12-17T00:52:09.926Z,-8.82
2018-12-17T00:54:37.522Z,-8.88
2018-12-17T00:57:05.167Z,-8.90
2018-12-17T00:59:32.857Z,-9.04
2018-12-17T01:02:00.554Z,-8.99
2018-12-17T01:04:28.135Z,-9.07
2018-12-17T01:06:55.825Z,-9.09
2018-12-17T01:09:23.691Z,-9.05
2018-12-17T01:11:53.271Z,-9.20
2018-12-17T01:14:20.878Z,-9.21
2018-12-17T01:16:50.290Z,-9.15
2018-12-17T01:19:17.872Z,-9.09
2018-12-17T01:21:46.145Z,-8.98
2018-12-17T01:24:13.794Z,-9.10
2018-12-17T01:26:42.338Z,-9.19
2018-12-17T01:29:10.888Z,-9.29
2018-12-17T01:31:38.539Z,-9.23
2018-12-17T01:34:06.430Z,-9.14
2018-12-17T01:36:34.083Z,-9.33
2018-12-17T01:39:01.702Z,-9.25
2018-12-17T01:41:29.359Z,-9.31
2018-12-17T01:43:57.034Z,-9.21
2018-12-17T01:46:25.345Z,-9.34
2018-12-17T01:48:53.816Z,-9.34
2018-12-17T01:51:21.511Z,-9.38
2018-12-17T01:53:49.134Z,-9.36
2018-12-17T01:56:16.714Z,-9.36
2018-12-17T01:58:44.489Z,-9.47
2018-12-17T02:01:12.140Z,-9.41
2018-12-17T02:03:39.827Z,-9.42
2018-12-17T02:06:08.494Z,-9.41
2018-12-17T02:08:36.181Z,-9.33
2018-12-17T02:11:04.062Z,-9.45
2018-12-17T02:13:31.693Z,-9.45
2018-12-17T02:15:59.329Z,-9.71
2018-12-17T02:18:26.975Z,-9.71
2018-12-17T02:20:54.565Z,-9.54
2018-12-17T02:23:22.260Z,-9.48
2018-12-17T02:29:14.348Z,-9.50
2018-12-17T02:35:36.344Z,-9.56
2018-12-17T02:41:00.027Z,-9.56
2018-12-17T02:43:28.467Z,-9.54
2018-12-17T02:45:56.181Z,-9.57
2018-12-17T02:48:23.829Z,-9.68
2018-12-17T02:50:55.076Z,-9.72
2018-12-17T02:53:22.743Z,-9.79
2018-12-17T02:55:50.371Z,-9.68
2018-12-17T02:58:18.068Z,-9.60
2018-12-17T03:00:45.766Z,-9.68
2018-12-17T03:03:13.400Z,-9.96
2018-12-17T03:05:41.101Z,-9.85
2018-12-17T03:08:08.708Z,-9.85
2018-12-17T03:10:36.354Z,-9.90
2018-12-17T03:13:03.974Z,-9.89
2018-12-17T03:15:31.628Z,-9.93
2018-12-17T03:17:59.204Z,-9.91
2018-12-17T03:20:26.864Z,-9.99
2018-12-17T03:22:54.517Z,-10.01
2018-12-17T03:25:22.138Z,-9.88
2018-12-17T03:27:49.769Z,-9.89
2018-12-17T03:30:17.411Z,-9.95
2018-12-17T03:32:44.998Z,-9.88
2018-12-17T03:35:12.697Z,-9.76
2018-12-17T03:37:42.150Z,-9.76
2018-12-17T03:40:09.755Z,-9.71
2018-12-17T03:42:38.822Z,-9.69
2018-12-17T03:45:07.266Z,-9.82
2018-12-17T03:47:34.860Z,-9.65
2018-12-17T03:50:02.607Z,-9.73
2018-12-17T03:52:31.254Z,-9.66
2018-12-17T03:54:59.095Z,-9.70
2018-12-17T03:57:26.781Z,-9.87
2018-12-17T03:59:54.422Z,-9.89
2018-12-17T04:02:22.097Z,-9.84
2018-12-17T04:04:51.764Z,-9.86
2018-12-17T04:07:19.366Z,-9.88
2018-12-17T04:09:47.145Z,-9.86
2018-12-17T04:12:14.814Z,-9.79
2018-12-17T04:14:42.393Z,-9.78
2018-12-17T04:17:10.034Z,-9.89
2018-12-17T04:19:37.698Z,-9.94
2018-12-17T04:22:05.496Z,-10.07
2018-12-17T04:24:33.108Z,-10.02
2018-12-17T04:27:00.777Z,-10.09
2018-12-17T04:29:28.384Z,-10.05
2018-12-17T04:31:55.983Z,-10.07
2018-12-17T04:34:23.669Z,-10.16
2018-12-17T04:36:51.365Z,-10.17
2018-12-17T04:39:18.959Z,-10.13
2018-12-17T04:41:47.166Z,-9.97
2018-12-17T04:44:15.061Z,-10.15
2018-12-17T04:46:42.746Z,-10.20
2018-12-17T04:49:10.548Z,-10.22
2018-12-17T04:51:38.205Z,-10.23
2018-12-17T04:54:05.842Z,-10.10
2018-12-17T04:56:34.353Z,-10.20
2018-12-17T04:59:01.950Z,-10.24
2018-12-17T05:01:30.068Z,-10.21
2018-12-17T05:03:58.668Z,-10.20
2018-12-17T05:06:26.500Z,-10.20
2018-12-17T05:08:54.142Z,-10.33
2018-12-17T05:11:21.870Z,-10.24
2018-12-17T05:13:49.535Z,-10.31
2018-12-17T05:16:17.204Z,-10.28
2018-12-17T05:18:44.994Z,-10.22
2018-12-17T05:21:12.836Z,-10.29
2018-12-17T05:23:40.510Z,-10.24
2018-12-17T05:26:08.208Z,-10.15
2018-12-17T05:28:35.810Z,-10.22
2018-12-17T05:31:03.616Z,-10.40
2018-12-17T05:33:31.462Z,-10.41
2018-12-17T05:35:59.523Z,-10.30
2018-12-17T05:38:27.215Z,-10.38
2018-12-17T05:40:55.123Z,-10.32
2018-12-17T05:43:22.757Z,-10.42
2018-12-17T05:45:51.502Z,-10.43
2018-12-17T05:48:21.137Z,-10.40
2018-12-17T05:50:48.777Z,-10.33
2018-12-17T05:53:18.268Z,-10.44
2018-12-17T05:55:45.938Z,-10.47
2018-12-17T05:58:14.371Z,-10.54
2018-12-17T06:00:41.976Z,-10.47
2018-12-17T06:03:09.801Z,-10.52
2018-12-17T06:05:37.450Z,-10.51
2018-12-17T06:08:05.145Z,-10.44
2018-12-17T06:10:32.768Z,-10.32
2018-12-17T06:13:00.646Z,-10.29
2018-12-17T06:15:28.538Z,-10.27
2018-12-17T06:17:56.193Z,-10.24
2018-12-17T06:20:25.527Z,-10.21
2018-12-17T06:22:54.137Z,-10.25
2018-12-17T06:25:22.782Z,-10.46
2018-12-17T06:27:50.905Z,-10.53
2018-12-17T06:30:20.679Z,-10.51
2018-12-17T06:32:48.573Z,-10.56
2018-12-17T06:35:17.143Z,-10.62
2018-12-17T06:37:44.804Z,-10.58
2018-12-17T06:40:12.661Z,-10.60
2018-12-17T06:42:40.296Z,-10.47
2018-12-17T06:45:08.148Z,-10.51
2018-12-17T06:47:36.580Z,-10.58
2018-12-17T06:50:05.591Z,-10.49
2018-12-17T06:52:33.636Z,-10.33
2018-12-17T06:55:03.443Z,-10.42
2018-12-17T06:57:31.910Z,-10.39
2018-12-17T06:59:59.714Z,-10.30
2018-12-17T07:02:27.768Z,-10.27
2018-12-17T07:04:56.020Z,-10.25
2018-12-17T07:07:24.113Z,-10.27
2018-12-17T07:09:51.880Z,-10.25
2018-12-17T07:12:20.547Z,-10.30
2018-12-17T07:14:48.678Z,-10.27
2018-12-17T07:17:19.900Z,-10.22
2018-12-17T07:19:47.649Z,-10.31
2018-12-17T07:22:15.694Z,-10.36
2018-12-17T07:24:43.761Z,-10.21
2018-12-17T07:27:11.777Z,-10.09
2018-12-17T07:29:39.665Z,-10.13
2018-12-17T07:32:08.211Z,-10.11
2018-12-17T07:34:35.986Z,-9.92
2018-12-17T07:37:04.473Z,-9.56
2018-12-17T07:39:33.047Z,-9.62
2018-12-17T07:42:02.759Z,-9.73
2018-12-17T07:44:31.174Z,-9.61
2018-12-17T07:46:59.150Z,-9.61
2018-12-17T07:49:28.627Z,-9.60
2018-12-17T07:51:56.679Z,-9.46
2018-12-17T07:54:24.579Z,-9.21
2018-12-17T07:56:53.921Z,-8.41
2018-12-17T07:59:21.788Z,-7.49
2018-12-17T08:01:50.103Z,-6.73
2018-12-17T08:04:20.165Z,-6.42
2018-12-17T08:06:47.923Z,-6.58
2018-12-17T08:09:16.765Z,-7.00
2018-12-17T08:11:47.718Z,-6.77
2018-12-17T08:14:22.724Z,-6.27
2018-12-17T08:16:56.306Z,-5.96
2018-12-17T08:19:30.018Z,-6.52
2018-12-17T08:21:58.336Z,-6.61
2018-12-17T08:24:28.675Z,-7.01
2018-12-17T08:26:56.674Z,-7.16
2018-12-17T08:29:26.266Z,-7.13
2018-12-17T08:31:57.668Z,-7.56
2018-12-17T08:34:27.597Z,-7.56
2018-12-17T08:36:55.698Z,-7.64
2018-12-17T08:39:24.659Z,-7.49
2018-12-17T08:41:55.485Z,-7.29
2018-12-17T08:44:24.094Z,-7.14
2018-12-17T08:46:54.767Z,-7.10
2018-12-17T08:49:24.357Z,-6.84
2018-12-17T08:51:57.030Z,-7.07
2018-12-17T08:54:26.289Z,-6.71
2018-12-17T08:56:54.966Z,-7.59
2018-12-17T08:59:22.816Z,-7.43
2018-12-17T09:01:50.623Z,-7.34
2018-12-17T09:04:18.529Z,-7.22
2018-12-17T09:06:46.344Z,-6.77
2018-12-17T09:09:14.337Z,-6.60
2018-12-17T09:11:44.117Z,-6.99
2018-12-17T09:14:14.137Z,-6.86
2018-12-17T09:16:44.847Z,-7.02
2018-12-17T09:19:15.066Z,-7.06
2018-12-17T09:21:43.878Z,-7.03
2018-12-17T09:24:13.517Z,-6.60
2018-12-17T09:26:43.634Z,-6.36
2018-12-17T09:29:16.191Z,-6.27
2018-12-17T09:31:46.218Z,-6.27
2018-12-17T09:34:20.726Z,-5.54
2018-12-17T09:40:19.952Z,-4.82
2018-12-17T09:42:49.342Z,-4.75
2018-12-17T09:45:17.587Z,-4.85
2018-12-17T09:47:50.615Z,-4.31
2018-12-17T09:50:19.333Z,-4.82
2018-12-17T09:52:48.888Z,-4.89
2018-12-17T09:55:19.420Z,-4.43
2018-12-17T09:57:48.565Z,-4.23
2018-12-17T10:00:25.151Z,-4.57
2018-12-17T10:02:49.425Z,-4.80
2018-12-17T10:05:18.830Z,-4.36
2018-12-17T10:07:48.894Z,-4.48
2018-12-17T10:10:17.837Z,-3.62
2018-12-17T10:12:48.052Z,-4.19
2018-12-17T10:15:18.721Z,-4.42
2018-12-17T10:17:46.892Z,-4.51
2018-12-17T10:20:14.930Z,-4.64
2018-12-17T10:22:42.979Z,-4.72
2018-12-17T10:25:10.870Z,-5.53
2018-12-17T10:27:39.254Z,-4.77
2018-12-17T10:30:07.121Z,-4.10
2018-12-17T10:32:34.984Z,-4.40
2018-12-17T10:35:03.002Z,-4.52
2018-12-17T10:37:30.826Z,-4.11
2018-12-17T10:39:59.109Z,-4.34
2018-12-17T10:42:27.631Z,-4.58
2018-12-17T10:44:55.516Z,-3.42
2018-12-17T10:47:23.421Z,-3.52
2018-12-17T10:49:51.368Z,-3.32
2018-12-17T10:52:19.304Z,-2.22
2018-12-17T10:54:47.064Z,-2.17
2018-12-17T10:57:15.009Z,-2.19
2018-12-17T10:59:42.752Z,-1.45
2018-12-17T11:02:13.166Z,-1.20
2018-12-17T11:04:42.985Z,-1.31
2018-12-17T11:07:10.960Z,-0.95
2018-12-17T11:09:40.773Z,-1.48
2018-12-17T11:12:08.454Z,-2.13
2018-12-17T11:14:37.073Z,-1.56
2018-12-17T11:17:04.966Z,-1.94
2018-12-17T11:19:32.839Z,-2.05
2018-12-17T11:22:00.583Z,-1.85
2018-12-17T11:24:28.486Z,-2.07
2018-12-17T11:26:56.277Z,-2.20
2018-12-17T11:29:24.128Z,-2.52
2018-12-17T11:31:52.092Z,-2.47
2018-12-17T11:34:20.115Z,-1.65
2018-12-17T11:36:48.646Z,-2.04
2018-12-17T11:39:16.817Z,-2.36
2018-12-17T11:41:44.566Z,-2.16
2018-12-17T11:44:12.256Z,-2.16
2018-12-17T11:46:40.098Z,-1.94
2018-12-17T11:49:07.942Z,-1.08
2018-12-17T11:51:35.817Z,-1.54
2018-12-17T11:54:04.762Z,-1.23
2018-12-17T11:56:40.573Z,-0.96
2018-12-17T11:59:08.767Z,-1.94
2018-12-17T12:01:36.661Z,-2.03
2018-12-17T12:04:04.400Z,-1.97
2018-12-17T12:06:32.035Z,-1.80
2018-12-17T12:08:59.725Z,-2.14
2018-12-17T12:11:27.333Z,-2.67
2018-12-17T12:13:54.991Z,-2.75
2018-12-17T12:16:22.653Z,-2.36
2018-12-17T12:18:50.627Z,-1.91
2018-12-17T12:21:18.900Z,-1.84
2018-12-17T12:23:46.563Z,-2.22
2018-12-17T12:26:14.167Z,-2.31
2018-12-17T12:28:41.871Z,-2.14
2018-12-17T12:31:09.628Z,-2.41
2018-12-17T12:33:37.205Z,-2.25
2018-12-17T12:36:04.879Z,-1.88
2018-12-17T12:38:32.471Z,-1.87
2018-12-17T12:41:00.144Z,-1.90
2018-12-17T12:43:29.761Z,-2.24
2018-12-17T12:45:57.381Z,-2.20
2018-12-17T12:48:25.092Z,-2.36
2018-12-17T12:50:52.823Z,-2.52
2018-12-17T12:53:20.477Z,-2.15
2018-12-17T12:55:48.111Z,-2.59
2018-12-17T12:58:15.762Z,-2.51
2018-12-17T13:00:43.401Z,-2.54
2018-12-17T13:03:11.037Z,-2.73
2018-12-17T13:05:38.694Z,-2.63
2018-12-17T13:08:06.390Z,-2.90
2018-12-17T13:10:35.148Z,-2.67
2018-12-17T13:13:02.873Z,-2.71
2018-12-17T13:15:30.664Z,-2.45
2018-12-17T13:17:58.319Z,-2.64
2018-12-17T13:20:25.968Z,-2.78
2018-12-17T13:22:53.661Z,-2.80
2018-12-17T13:25:23.327Z,-2.93
2018-12-17T13:27:50.956Z,-2.40
2018-12-17T13:30:18.623Z,-2.42
2018-12-17T13:32:46.225Z,-2.35
2018-12-17T13:35:13.876Z,-2.34
2018-12-17T13:37:41.546Z,-2.50
2018-12-17T13:40:09.416Z,-2.34
2018-12-17T13:42:37.286Z,-2.70
2018-12-17T13:45:06.029Z,-2.52
2018-12-17T13:47:33.737Z,-2.82
2018-12-17T13:50:03.654Z,-2.56
2018-12-17T13:52:36.943Z,-2.76
2018-12-17T13:55:05.136Z,-3.01
2018-12-17T13:57:32.879Z,-2.69
2018-12-17T14:00:01.376Z,-2.54
2018-12-17T14:02:29.087Z,-2.51
2018-12-17T14:04:56.747Z,-2.66
2018-12-17T14:07:24.416Z,-2.51
2018-12-17T14:09:57.576Z,-2.83
2018-12-17T14:12:25.172Z,-2.71
2018-12-17T14:14:53.627Z,-2.98
2018-12-17T14:17:26.890Z,-2.93
2018-12-17T14:20:00.462Z,-2.92
2018-12-17T14:22:28.766Z,-2.68
2018-12-17T14:24:56.379Z,-2.63
2018-12-17T14:27:24.067Z,-2.55
2018-12-17T14:29:51.682Z,-2.53
2018-12-17T14:32:19.365Z,-2.72
2018-12-17T14:34:47.005Z,-2.91
2018-12-17T14:37:14.709Z,-2.78
2018-12-17T14:39:42.341Z,-2.87
2018-12-17T14:42:10.303Z,-2.78
2018-12-17T14:44:38.021Z,-2.84
2018-12-17T14:47:05.666Z,-3.05
2018-12-17T14:49:33.428Z,-3.12
2018-12-17T14:52:01.019Z,-3.20
2018-12-17T14:54:28.714Z,-3.16
2018-12-17T14:56:56.312Z,-3.31
2018-12-17T14:59:24.402Z,-3.22
2018-12-17T15:01:52.070Z,-3.04
2018-12-17T15:04:19.754Z,-3.24
2018-12-17T15:06:47.374Z,-3.20
2018-12-17T15:09:15.019Z,-3.09
2018-12-17T15:11:42.664Z,-3.12
2018-12-17T15:14:11.211Z,-3.39
2018-12-17T15:16:38.779Z,-3.28
2018-12-17T15:19:06.634Z,-3.29
2018-12-17T15:21:34.321Z,-3.20
2018-12-17T15:24:02.042Z,-3.08
2018-12-17T15:26:34.926Z,-3.17
2018-12-17T15:29:08.015Z,-3.15
2018-12-17T15:31:42.802Z,-3.20
2018-12-17T15:34:07.048Z,-3.11
2018-12-17T15:36:35.174Z,-3.21
2018-12-17T15:39:03.092Z,-3.23
2018-12-17T15:41:30.716Z,-3.14
2018-12-17T15:43:58.424Z,-3.25
2018-12-17T15:46:26.266Z,-3.29
2018-12-17T15:48:53.874Z,-3.30
2018-12-17T15:51:21.723Z,-3.39
2018-12-17T15:53:49.355Z,-3.39
2018-12-17T15:56:17.185Z,-3.31
2018-12-17T15:58:44.900Z,-3.31
2018-12-17T16:01:12.554Z,-3.32
2018-12-17T16:03:40.230Z,-3.50
2018-12-17T16:06:07.899Z,-3.34
2018-12-17T16:08:35.664Z,-3.24
2018-12-17T16:11:03.467Z,-3.25
2018-12-17T16:13:31.095Z,-3.25
2018-12-17T16:15:58.793Z,-3.29
2018-12-17T16:18:26.522Z,-3.34
2018-12-17T16:20:54.316Z,-3.37
2018-12-17T16:23:21.922Z,-3.20
2018-12-17T16:25:49.611Z,-3.17
2018-12-17T16:28:17.466Z,-3.18
2018-12-17T16:30:45.397Z,-3.22
2018-12-17T16:33:14.464Z,-3.12
2018-12-17T16:35:42.936Z,-3.07
2018-12-17T16:38:10.541Z,-3.06
2018-12-17T16:40:38.834Z,-3.05
2018-12-17T16:43:06.586Z,-3.14
2018-12-17T16:45:34.260Z,-3.09
2018-12-17T16:48:02.039Z,-3.12
2018-12-17T16:50:29.893Z,-3.29
2018-12-17T16:52:57.670Z,-3.28
2018-12-17T16:55:25.345Z,-3.25
2018-12-17T16:57:53.393Z,-3.15
2018-12-17T17:00:21.261Z,-3.15
2018-12-17T17:02:49.128Z,-3.17
2018-12-17T17:05:17.927Z,-3.17
2018-12-17T17:07:45.635Z,-3.39
2018-12-17T17:10:13.394Z,-3.20
2018-12-17T17:12:42.656Z,-3.19
2018-12-17T17:15:10.576Z,-3.28
2018-12-17T17:17:38.318Z,-3.31
2018-12-17T17:20:07.506Z,-3.20
2018-12-17T17:22:35.206Z,-3.27
2018-12-17T17:25:02.807Z,-3.31
2018-12-17T17:27:31.449Z,-3.22
2018-12-17T17:30:00.123Z,-3.13
2018-12-17T17:32:27.851Z,-3.05
2018-12-17T17:34:55.634Z,-2.97
2018-12-17T17:37:23.335Z,-3.08
2018-12-17T17:39:51.199Z,-3.10
2018-12-17T17:42:20.526Z,-3.14
2018-12-17T17:44:48.216Z,-3.06
2018-12-17T17:47:17.145Z,-3.14
2018-12-17T17:49:44.992Z,-3.13
2018-12-17T17:52:13.300Z,-3.12
2018-12-17T17:54:41.062Z,-3.17
2018-12-17T17:57:08.798Z,-3.17
2018-12-17T17:59:36.503Z,-3.31
2018-12-17T18:02:04.553Z,-3.31
2018-12-17T18:04:32.302Z,-3.30
2018-12-17T18:07:00.020Z,-3.22
2018-12-17T18:09:27.741Z,-3.27
2018-12-17T18:11:55.572Z,-3.24
2018-12-17T18:14:23.476Z,-3.34
2018-12-17T18:16:51.231Z,-3.32
2018-12-17T18:19:19.662Z,-3.29
2018-12-17T18:21:47.430Z,-3.35
2018-12-17T18:24:15.352Z,-3.26
2018-12-17T18:26:43.145Z,-3.19
2018-12-17T18:29:11.160Z,-3.24
2018-12-17T18:31:38.805Z,-3.30
2018-12-17T18:34:06.447Z,-3.17
2018-12-17T18:36:34.127Z,-3.15
2018-12-17T18:39:02.355Z,-3.06
2018-12-17T18:41:30.238Z,-3.11
2018-12-17T18:43:58.190Z,-3.08
2018-12-17T18:46:25.905Z,-3.17
2018-12-17T18:48:53.604Z,-3.16
2018-12-17T18:51:21.448Z,-3.22
2018-12-17T18:53:51.124Z,-3.10
2018-12-17T18:56:18.839Z,-3.10
2018-12-17T18:58:46.542Z,-3.18
2018-12-17T19:01:14.497Z,-3.38
2018-12-17T19:03:42.226Z,-3.04
2018-12-17T19:06:09.959Z,-3.16
2018-12-17T19:08:37.806Z,-3.25
2018-12-17T19:11:05.638Z,-3.23
2018-12-17T19:13:33.612Z,-3.24
2018-12-17T19:16:01.253Z,-3.09
2018-12-17T19:18:29.117Z,-3.15
2018-12-17T19:20:57.016Z,-3.16
2018-12-17T19:23:24.767Z,-3.27
2018-12-17T19:25:52.403Z,-3.29
2018-12-17T19:28:20.998Z,-3.30
2018-12-17T19:30:48.769Z,-3.33
2018-12-17T19:33:16.694Z,-3.37
2018-12-17T19:35:44.364Z,-3.42
2018-12-17T19:38:12.900Z,-3.36
2018-12-17T19:40:40.593Z,-3.36
2018-12-17T19:43:09.196Z,-3.35
2018-12-17T19:45:36.946Z,-3.36
2018-12-17T19:48:04.744Z,-3.37
2018-12-17T19:50:32.639Z,-3.37
2018-12-17T19:53:00.412Z,-3.39
2018-12-17T19:55:28.554Z,-3.33
2018-12-17T19:57:57.186Z,-3.35
2018-12-17T20:00:24.991Z,-3.27
2018-12-17T20:02:53.030Z,-3.44
2018-12-17T20:05:20.878Z,-3.43
2018-12-17T20:07:51.548Z,-3.34
2018-12-17T20:10:21.430Z,-3.31
2018-12-17T20:12:49.391Z,-3.31
2018-12-17T20:15:17.271Z,-3.29
2018-12-17T20:17:45.686Z,-3.38
2018-12-17T20:20:13.284Z,-3.43
2018-12-17T20:22:41.004Z,-3.48
2018-12-17T20:25:08.594Z,-3.50
2018-12-17T20:27:36.266Z,-3.45
2018-12-17T20:30:05.594Z,-3.48
2018-12-17T20:32:33.251Z,-3.52
2018-12-17T20:35:00.967Z,-3.52
2018-12-17T20:37:28.562Z,-3.61
2018-12-17T20:39:56.160Z,-3.58
2018-12-17T20:42:23.789Z,-3.54
2018-12-17T20:44:51.449Z,-3.56
2018-12-17T20:47:19.162Z,-3.60
2018-12-17T20:49:47.786Z,-3.56
2018-12-17T20:52:15.491Z,-3.60
2018-12-17T20:54:43.200Z,-3.56
2018-12-17T20:57:11.323Z,-3.57
2018-12-17T20:59:38.906Z,-3.55
2018-12-17T21:02:06.588Z,-3.50
2018-12-17T21:04:34.281Z,-3.42
2018-12-17T21:07:01.930Z,-3.44
2018-12-17T21:09:29.655Z,-3.41
2018-12-17T21:11:57.291Z,-3.40
2018-12-17T21:14:24.984Z,-3.39
2018-12-17T21:16:52.747Z,-3.41
2018-12-17T21:19:20.827Z,-3.37
2018-12-17T21:21:49.665Z,-3.34
2018-12-17T21:24:17.383Z,-3.33
2018-12-17T21:26:45.084Z,-3.29
2018-12-17T21:29:12.830Z,-3.25
2018-12-17T21:31:40.538Z,-3.27
2018-12-17T21:34:08.350Z,-3.35
2018-12-17T21:36:36.120Z,-3.54
2018-12-17T21:39:05.268Z,-3.49
2018-12-17T21:41:33.013Z,-3.48
2018-12-17T21:44:00.733Z,-3.51
2018-12-17T21:46:28.647Z,-3.55
2018-12-17T21:48:56.409Z,-3.74
2018-12-17T21:51:24.124Z,-3.64
2018-12-17T21:53:51.833Z,-3.67
2018-12-17T21:56:19.401Z,-3.68
2018-12-17T21:58:47.023Z,-3.61
2018-12-17T22:01:15.580Z,-3.56
2018-12-17T22:03:43.439Z,-3.60
2018-12-17T22:06:11.095Z,-3.59
2018-12-17T22:08:38.802Z,-3.65
2018-12-17T22:11:06.583Z,-3.57
2018-12-17T22:13:34.231Z,-3.65
2018-12-17T22:16:01.895Z,-3.66
2018-12-17T22:18:29.598Z,-3.49
2018-12-17T22:20:57.422Z,-3.69
2018-12-17T22:23:25.180Z,-3.56
2018-12-17T22:25:53.114Z,-3.62
2018-12-17T22:28:21.040Z,-3.59
2018-12-17T22:30:49.074Z,-3.53
2018-12-17T22:33:19.648Z,-3.46
2018-12-17T22:35:46.514Z,-3.40
2018-12-17T22:38:14.185Z,-3.48
2018-12-17T22:40:41.882Z,-3.48
2018-12-17T22:43:09.620Z,-3.39
2018-12-17T22:45:37.234Z,-3.41
2018-12-17T22:48:04.983Z,-3.44
2018-12-17T22:50:32.628Z,-3.39
2018-12-17T22:53:00.349Z,-3.36
2018-12-17T22:55:28.419Z,-3.44
2018-12-17T22:57:56.108Z,-3.34
2018-12-17T23:00:23.942Z,-3.28
2018-12-17T23:02:51.596Z,-3.28
2018-12-17T23:05:19.245Z,-3.32
2018-12-17T23:07:46.892Z,-3.29
2018-12-17T23:10:26.360Z,-3.27
2018-12-17T23:13:05.832Z,-3.41
2018-12-17T23:15:45.488Z,-3.39
2018-12-17T23:18:14.263Z,-3.39
2018-12-17T23:20:43.280Z,-3.44
2018-12-17T23:23:10.935Z,-3.50
2018-12-17T23:25:38.649Z,-3.34
2018-12-17T23:28:08.422Z,-3.43
2018-12-17T23:30:36.197Z,-3.33
2018-12-17T23:33:03.846Z,-3.32
2018-12-17T23:35:31.520Z,-3.43
2018-12-17T23:37:59.196Z,-3.39
2018-12-17T23:40:26.888Z,-3.35
2018-12-17T23:42:54.628Z,-3.31
2018-12-17T23:45:22.259Z,-3.39
2018-12-17T23:47:49.897Z,-3.43
2018-12-17T23:50:17.614Z,-3.34
2018-12-17T23:52:45.289Z,-3.35
2018-12-17T23:55:12.978Z,-3.32
2018-12-17T23:57:40.664Z,-3.29
